sensor_id;sensor_type;location;lat;lon;timestamp;P1;durP1;ratioP1;P2;durP2;ratioP2
72645;SDS011;60687;53.876;10.674;2024-01-25T00:04:10;23.90;;;3.00;;
72645;SDS011;60687;53.876;10.674;2024-01-25T00:15:05;20.50;;;3.27;;
72645;SDS011;60687;53.876;10.674;2024-01-25T00:25:23;27.23;;;4.13;;
72645;SDS011;60687;53.876;10.674;2024-01-25T00:36:25;23.10;;;4.03;;
72645;SDS011;60687;53.876;10.674;2024-01-25T00:46:32;31.43;;;4.17;;
72645;SDS011;60687;53.876;10.674;2024-01-25T00:56:48;28.98;;;3.95;;
72645;SDS011;60687;53.876;10.674;2024-01-25T01:07:01;19.27;;;3.77;;
72645;SDS011;60687;53.876;10.674;2024-01-25T01:17:31;29.17;;;3.70;;
72645;SDS011;60687;53.876;10.674;2024-01-25T01:27:36;22.20;;;3.97;;
72645;SDS011;60687;53.876;10.674;2024-01-25T01:38:28;22.48;;;3.28;;
72645;SDS011;60687;53.876;10.674;2024-01-25T01:48:50;19.37;;;3.00;;
72645;SDS011;60687;53.876;10.674;2024-01-25T01:58:54;27.57;;;3.87;;
72645;SDS011;60687;53.876;10.674;2024-01-25T02:08:58;19.75;;;2.92;;
72645;SDS011;60687;53.876;10.674;2024-01-25T02:19:06;17.57;;;2.80;;
72645;SDS011;60687;53.876;10.674;2024-01-25T02:29:10;17.23;;;2.60;;
72645;SDS011;60687;53.876;10.674;2024-01-25T02:39:13;17.65;;;2.70;;
72645;SDS011;60687;53.876;10.674;2024-01-25T02:49:19;19.00;;;2.93;;
72645;SDS011;60687;53.876;10.674;2024-01-25T02:59:23;25.40;;;5.10;;
72645;SDS011;60687;53.876;10.674;2024-01-25T03:09:31;24.02;;;3.13;;
72645;SDS011;60687;53.876;10.674;2024-01-25T03:19:33;16.42;;;2.60;;
72645;SDS011;60687;53.876;10.674;2024-01-25T03:29:38;21.73;;;3.13;;
72645;SDS011;60687;53.876;10.674;2024-01-25T03:39:42;18.70;;;3.57;;
72645;SDS011;60687;53.876;10.674;2024-01-25T03:49:55;18.33;;;2.67;;
72645;SDS011;60687;53.876;10.674;2024-01-25T04:00:02;15.60;;;2.70;;
72645;SDS011;60687;53.876;10.674;2024-01-25T04:10:10;20.57;;;3.97;;
72645;SDS011;60687;53.876;10.674;2024-01-25T04:20:13;18.92;;;3.28;;
72645;SDS011;60687;53.876;10.674;2024-01-25T04:30:19;17.87;;;3.13;;
72645;SDS011;60687;53.876;10.674;2024-01-25T04:40:21;20.40;;;2.80;;
72645;SDS011;60687;53.876;10.674;2024-01-25T04:50:25;20.58;;;3.28;;
72645;SDS011;60687;53.876;10.674;2024-01-25T05:00:28;19.33;;;2.88;;
72645;SDS011;60687;53.876;10.674;2024-01-25T05:10:33;24.90;;;2.97;;
72645;SDS011;60687;53.876;10.674;2024-01-25T05:20:35;17.63;;;2.70;;
72645;SDS011;60687;53.876;10.674;2024-01-25T05:30:40;22.92;;;2.78;;
72645;SDS011;60687;53.876;10.674;2024-01-25T05:40:43;18.17;;;3.80;;
72645;SDS011;60687;53.876;10.674;2024-01-25T05:50:47;18.00;;;2.70;;
72645;SDS011;60687;53.876;10.674;2024-01-25T06:00:51;24.33;;;2.83;;
72645;SDS011;60687;53.876;10.674;2024-01-25T06:10:56;21.20;;;3.40;;
72645;SDS011;60687;53.876;10.674;2024-01-25T06:20:58;17.07;;;3.20;;
72645;SDS011;60687;53.876;10.674;2024-01-25T06:31:05;17.52;;;2.70;;
72645;SDS011;60687;53.876;10.674;2024-01-25T06:41:08;20.48;;;3.50;;
72645;SDS011;60687;53.876;10.674;2024-01-25T06:51:12;15.97;;;2.60;;
72645;SDS011;60687;53.876;10.674;2024-01-25T07:01:19;16.60;;;3.27;;
72645;SDS011;60687;53.876;10.674;2024-01-25T07:11:25;24.42;;;3.47;;
72645;SDS011;60687;53.876;10.674;2024-01-25T07:21:27;24.73;;;2.73;;
72645;SDS011;60687;53.876;10.674;2024-01-25T07:31:37;16.47;;;3.03;;
72645;SDS011;60687;53.876;10.674;2024-01-25T07:41:41;17.52;;;2.50;;
72645;SDS011;60687;53.876;10.674;2024-01-25T07:51:48;14.30;;;3.70;;
72645;SDS011;60687;53.876;10.674;2024-01-25T08:01:50;25.83;;;3.90;;
72645;SDS011;60687;53.876;10.674;2024-01-25T08:11:55;20.15;;;2.80;;
72645;SDS011;60687;53.876;10.674;2024-01-25T08:21:57;16.63;;;2.80;;
72645;SDS011;60687;53.876;10.674;2024-01-25T08:32:11;18.53;;;2.60;;
72645;SDS011;60687;53.876;10.674;2024-01-25T08:42:40;18.30;;;2.67;;
72645;SDS011;60687;53.876;10.674;2024-01-25T08:53:30;19.02;;;2.70;;
72645;SDS011;60687;53.876;10.674;2024-01-25T09:04:43;16.80;;;2.70;;
72645;SDS011;60687;53.876;10.674;2024-01-25T09:14:37;18.83;;;2.97;;
72645;SDS011;60687;53.876;10.674;2024-01-25T09:24:52;17.48;;;3.10;;
72645;SDS011;60687;53.876;10.674;2024-01-25T09:35:21;15.53;;;2.50;;
72645;SDS011;60687;53.876;10.674;2024-01-25T09:45:48;19.47;;;3.23;;
72645;SDS011;60687;53.876;10.674;2024-01-25T09:56:31;17.13;;;3.00;;
72645;SDS011;60687;53.876;10.674;2024-01-25T10:06:41;20.27;;;2.80;;
72645;SDS011;60687;53.876;10.674;2024-01-25T10:17:11;16.30;;;2.30;;
72645;SDS011;60687;53.876;10.674;2024-01-25T10:27:46;16.23;;;1.70;;
72645;SDS011;60687;53.876;10.674;2024-01-25T10:38:02;15.52;;;3.33;;
72645;SDS011;60687;53.876;10.674;2024-01-25T10:48:20;19.50;;;3.03;;
72645;SDS011;60687;53.876;10.674;2024-01-25T10:58:40;16.93;;;2.30;;
72645;SDS011;60687;53.876;10.674;2024-01-25T11:09:08;14.73;;;2.45;;
72645;SDS011;60687;53.876;10.674;2024-01-25T11:19:26;16.87;;;2.50;;
72645;SDS011;60687;53.876;10.674;2024-01-25T11:29:42;14.27;;;2.07;;
72645;SDS011;60687;53.876;10.674;2024-01-25T11:39:56;16.40;;;2.20;;
72645;SDS011;60687;53.876;10.674;2024-01-25T11:50:33;17.17;;;3.05;;
72645;SDS011;60687;53.876;10.674;2024-01-25T12:00:55;13.57;;;1.80;;
72645;SDS011;60687;53.876;10.674;2024-01-25T12:11:20;19.37;;;2.37;;
72645;SDS011;60687;53.876;10.674;2024-01-25T12:21:43;17.42;;;2.75;;
72645;SDS011;60687;53.876;10.674;2024-01-25T12:32:20;12.27;;;2.10;;
72645;SDS011;60687;53.876;10.674;2024-01-25T12:53:22;13.90;;;2.10;;
72645;SDS011;60687;53.876;10.674;2024-01-25T13:03:32;15.27;;;2.30;;
72645;SDS011;60687;53.876;10.674;2024-01-25T13:13:50;17.37;;;2.67;;
72645;SDS011;60687;53.876;10.674;2024-01-25T13:24:48;14.15;;;2.25;;
72645;SDS011;60687;53.876;10.674;2024-01-25T13:35:08;12.02;;;2.28;;
72645;SDS011;60687;53.876;10.674;2024-01-25T13:45:33;19.20;;;3.10;;
72645;SDS011;60687;53.876;10.674;2024-01-25T13:55:59;13.53;;;2.20;;
72645;SDS011;60687;53.876;10.674;2024-01-25T14:06:08;14.75;;;2.03;;
72645;SDS011;60687;53.876;10.674;2024-01-25T14:16:17;13.53;;;2.50;;
72645;SDS011;60687;53.876;10.674;2024-01-25T14:26:30;13.90;;;2.10;;
72645;SDS011;60687;53.876;10.674;2024-01-25T14:36:39;11.93;;;1.90;;
72645;SDS011;60687;53.876;10.674;2024-01-25T14:46:57;13.57;;;2.57;;
72645;SDS011;60687;53.876;10.674;2024-01-25T14:57:33;15.83;;;2.20;;
72645;SDS011;60687;53.876;10.674;2024-01-25T15:07:41;16.20;;;2.75;;
72645;SDS011;60687;53.876;10.674;2024-01-25T15:17:49;15.63;;;2.80;;
72645;SDS011;60687;53.876;10.674;2024-01-25T15:28:03;11.87;;;2.40;;
72645;SDS011;60687;53.876;10.674;2024-01-25T15:38:12;14.90;;;2.93;;
72645;SDS011;60687;53.876;10.674;2024-01-25T15:48:27;14.57;;;2.60;;
72645;SDS011;60687;53.876;10.674;2024-01-25T15:58:35;16.33;;;2.50;;
72645;SDS011;60687;53.876;10.674;2024-01-25T16:09:09;13.93;;;2.83;;
72645;SDS011;60687;53.876;10.674;2024-01-25T16:19:11;16.67;;;2.72;;
72645;SDS011;60687;53.876;10.674;2024-01-25T16:29:24;14.70;;;2.40;;
72645;SDS011;60687;53.876;10.674;2024-01-25T17:01:59;22.05;;;3.55;;
72645;SDS011;60687;53.876;10.674;2024-01-25T17:12:42;12.13;;;2.83;;
72645;SDS011;60687;53.876;10.674;2024-01-25T17:24:00;15.97;;;3.37;;
72645;SDS011;60687;53.876;10.674;2024-01-25T17:34:23;13.60;;;2.88;;
72645;SDS011;60687;53.876;10.674;2024-01-25T17:44:35;15.80;;;3.67;;
72645;SDS011;60687;53.876;10.674;2024-01-25T18:17:12;13.10;;;2.60;;
72645;SDS011;60687;53.876;10.674;2024-01-25T18:38:45;13.63;;;3.78;;
72645;SDS011;60687;53.876;10.674;2024-01-25T18:49:22;13.77;;;3.33;;
72645;SDS011;60687;53.876;10.674;2024-01-25T18:59:56;14.50;;;3.00;;
72645;SDS011;60687;53.876;10.674;2024-01-25T19:10:58;14.73;;;3.83;;
72645;SDS011;60687;53.876;10.674;2024-01-25T19:22:21;14.95;;;3.80;;
72645;SDS011;60687;53.876;10.674;2024-01-25T19:33:43;12.77;;;3.40;;
72645;SDS011;60687;53.876;10.674;2024-01-25T20:06:49;12.60;;;4.07;;
72645;SDS011;60687;53.876;10.674;2024-01-25T20:16:55;17.80;;;4.37;;
72645;SDS011;60687;53.876;10.674;2024-01-25T20:27:36;14.07;;;3.78;;
72645;SDS011;60687;53.876;10.674;2024-01-25T20:38:23;14.93;;;4.30;;
72645;SDS011;60687;53.876;10.674;2024-01-25T20:49:17;17.83;;;4.97;;
72645;SDS011;60687;53.876;10.674;2024-01-25T21:00:49;17.17;;;4.63;;
72645;SDS011;60687;53.876;10.674;2024-01-25T21:21:52;16.10;;;4.90;;
72645;SDS011;60687;53.876;10.674;2024-01-25T22:06:21;20.17;;;4.80;;
72645;SDS011;60687;53.876;10.674;2024-01-25T22:17:02;17.58;;;4.93;;
72645;SDS011;60687;53.876;10.674;2024-01-25T22:27:48;18.65;;;4.13;;
72645;SDS011;60687;53.876;10.674;2024-01-25T22:38:28;18.07;;;5.13;;
72645;SDS011;60687;53.876;10.674;2024-01-25T23:01:07;15.73;;;5.72;;
72645;SDS011;60687;53.876;10.674;2024-01-25T23:22:40;22.13;;;5.40;;
72645;SDS011;60687;53.876;10.674;2024-01-25T23:33:04;16.90;;;4.82;;
72645;SDS011;60687;53.876;10.674;2024-01-25T23:43:39;21.50;;;5.23;;
72645;SDS011;60687;53.876;10.674;2024-01-25T23:54:04;13.93;;;4.87;;
